Time;durP1;ratioP1;P1;durP2;ratioP2;P2;SDS_P1;SDS_P2;PMS_P1;PMS_P2;Temp;Humidity;BMP_temperature;BMP_pressure;BME280_temperature;BME280_humidity;BME280_pressure;Samples;Min_cycle;Max_cycle;Signal;HPM_P1;HPM_P2
2021/11/30 00:02:16;;;;;;;16.90;5.20;;;;;;;3.37;100.00;101220.22;10582889;28;20047;-57
2021/11/30 00:07:19;;;;;;;10.68;6.88;;;;;;;3.44;100.00;101218.34;10582653;28;20058;-56
2021/11/30 00:12:23;;;;;;;13.27;7.03;;;;;;;3.41;100.00;101211.50;10564028;28;20043;-54
2021/11/30 00:17:26;;;;;;;16.98;8.27;;;;;;;3.40;100.00;101198.59;10582112;28;20051;-59
2021/11/30 00:22:28;;;;;;;13.52;7.05;;;;;;;3.44;100.00;101177.78;10582359;28;20062;-57
2021/11/30 00:27:31;;;;;;;19.70;9.00;;;;;;;3.44;100.00;101184.69;10581698;28;20044;-57
2021/11/30 00:32:33;;;;;;;13.48;8.20;;;;;;;3.42;100.00;101179.56;10581374;28;20047;-52
2021/11/30 00:37:35;;;;;;;18.20;8.45;;;;;;;3.47;100.00;101169.94;10581573;28;20505;-54
2021/11/30 00:42:38;;;;;;;14.55;7.68;;;;;;;3.33;100.00;101159.91;10581074;28;20048;-57
2021/11/30 00:53:10;;;;;;;20.10;7.38;;;;;;;3.33;100.00;101133.19;10578899;28;20043;-56
2021/11/30 00:58:13;;;;;;;15.10;7.07;;;;;;;3.31;100.00;101119.41;10581637;28;20083;-56
2021/11/30 01:03:15;;;;;;;13.60;7.28;;;;;;;3.40;100.00;101102.84;10580910;28;20062;-58
2021/11/30 01:08:17;;;;;;;16.00;7.68;;;;;;;3.30;100.00;101091.84;10582785;28;20235;-57
2021/11/30 01:13:20;;;;;;;25.92;9.43;;;;;;;3.24;100.00;101091.97;10589109;28;20043;-59
2021/11/30 01:18:22;;;;;;;25.50;9.50;;;;;;;3.17;100.00;101091.25;10589348;28;20396;-56
2021/11/30 01:23:30;;;;;;;28.40;10.15;;;;;;;3.07;100.00;101090.59;10588526;28;20039;-53
2021/11/30 01:28:33;;;;;;;26.58;9.20;;;;;;;3.07;100.00;101095.75;10589219;28;20096;-56
2021/11/30 01:33:35;;;;;;;26.88;10.25;;;;;;;3.12;100.00;101087.91;10588145;28;20050;-56
2021/11/30 01:38:38;;;;;;;20.33;8.23;;;;;;;3.08;100.00;101091.47;10587908;28;20410;-58
2021/11/30 01:43:44;;;;;;;27.25;7.82;;;;;;;2.92;100.00;101083.16;10587743;28;20418;-55
2021/11/30 01:54:07;;;;;;;12.32;7.55;;;;;;;2.81;100.00;101056.66;10587803;28;20048;-55
2021/11/30 01:59:10;;;;;;;16.13;8.95;;;;;;;2.69;100.00;101030.19;10587452;28;20074;-58
2021/11/30 02:04:12;;;;;;;19.80;7.68;;;;;;;2.68;100.00;101019.88;10587118;28;20059;-57
2021/11/30 02:09:14;;;;;;;17.52;8.38;;;;;;;2.55;100.00;101006.34;10568797;28;20043;-59
2021/11/30 02:14:17;;;;;;;19.60;9.15;;;;;;;2.64;100.00;100988.09;10586769;28;20043;-51
2021/11/30 02:19:19;;;;;;;18.08;8.77;;;;;;;2.61;100.00;100982.97;10586578;28;20059;-58
2021/11/30 02:24:22;;;;;;;14.35;8.35;;;;;;;2.61;100.00;100967.47;10585987;28;20054;-56
2021/11/30 02:29:24;;;;;;;16.02;9.32;;;;;;;2.63;100.00;100970.00;10568525;28;20051;-56
2021/11/30 02:34:27;;;;;;;19.20;9.63;;;;;;;2.52;100.00;100955.59;10585594;28;20052;-55
2021/11/30 02:39:29;;;;;;;16.52;9.77;;;;;;;2.45;100.00;100938.50;10586150;28;20058;-56
2021/11/30 02:44:32;;;;;;;19.20;11.55;;;;;;;2.59;100.00;100931.31;10585544;28;20050;-58
2021/11/30 02:49:37;;;;;;;14.27;10.23;;;;;;;2.52;100.00;100924.56;10585165;28;20399;-55
2021/11/30 02:54:46;;;;;;;16.98;10.32;;;;;;;2.68;100.00;100912.16;10585007;28;20047;-57
2021/11/30 02:59:50;;;;;;;17.27;11.90;;;;;;;2.65;100.00;100911.38;10584943;28;20077;-57
2021/11/30 03:04:55;;;;;;;18.08;12.27;;;;;;;2.67;100.00;100907.00;10585185;28;20052;-57
2021/11/30 03:09:57;;;;;;;22.92;13.15;;;;;;;2.66;100.00;100887.22;10584206;28;20043;-57
2021/11/30 03:15:05;;;;;;;23.92;16.55;;;;;;;2.67;100.00;100882.00;10584942;28;20046;-56
2021/11/30 03:20:08;;;;;;;20.55;16.35;;;;;;;2.75;100.00;100874.06;10584134;28;20054;-59
2021/11/30 03:25:12;;;;;;;18.95;15.20;;;;;;;2.90;100.00;100865.94;10583949;28;20044;-60
2021/11/30 03:30:16;;;;;;;29.02;17.75;;;;;;;2.93;100.00;100872.78;10582849;28;20101;-58
2021/11/30 03:35:18;;;;;;;31.70;20.67;;;;;;;2.99;100.00;100870.03;10583495;28;20055;-58
2021/11/30 03:40:20;;;;;;;31.92;22.23;;;;;;;3.06;100.00;100919.88;10583060;28;20077;-58
2021/11/30 03:45:23;;;;;;;27.67;20.90;;;;;;;3.10;100.00;100898.22;10583054;28;20048;-55
2021/11/30 03:50:25;;;;;;;26.88;20.48;;;;;;;3.20;100.00;100897.13;10582613;28;20491;-56
2021/11/30 03:55:28;;;;;;;27.20;20.65;;;;;;;3.22;100.00;100891.91;10583115;28;20122;-59
2021/11/30 04:00:33;;;;;;;29.20;22.05;;;;;;;3.29;100.00;100877.91;10582783;28;20052;-60
2021/11/30 04:05:35;;;;;;;24.90;20.20;;;;;;;3.38;100.00;100879.41;10582418;28;20441;-58
2021/11/30 04:10:38;;;;;;;25.98;19.65;;;;;;;3.42;100.00;100874.13;10582236;28;20059;-58
2021/11/30 04:15:40;;;;;;;24.52;20.45;;;;;;;3.55;100.00;100864.28;10582416;28;20093;-57
2021/11/30 04:20:42;;;;;;;28.50;23.13;;;;;;;3.57;100.00;100859.91;10581903;28;20047;-55
2021/11/30 04:25:45;;;;;;;23.25;19.25;;;;;;;3.59;100.00;100841.75;10582040;28;20043;-57
2021/11/30 04:30:47;;;;;;;25.55;20.65;;;;;;;3.72;100.00;100837.94;10581999;28;20043;-58
2021/11/30 04:35:49;;;;;;;26.98;21.73;;;;;;;3.78;100.00;100844.66;10581577;28;20051;-56
2021/11/30 04:40:52;;;;;;;21.02;17.88;;;;;;;3.80;100.00;100848.94;10581417;28;20088;-56
2021/11/30 04:46:00;;;;;;;24.27;19.33;;;;;;;3.89;100.00;100830.50;10588291;28;20049;-56
2021/11/30 04:51:04;;;;;;;25.08;19.60;;;;;;;3.93;100.00;100814.88;10590103;28;20044;-59
2021/11/30 04:56:06;;;;;;;22.30;16.95;;;;;;;3.99;100.00;100818.16;10589678;28;20050;-57
2021/11/30 05:01:09;;;;;;;21.58;17.33;;;;;;;4.03;100.00;100808.53;10589104;28;20055;-60
2021/11/30 05:06:12;;;;;;;23.98;19.10;;;;;;;4.17;100.00;100808.09;10589533;28;20055;-54
2021/11/30 05:11:15;;;;;;;22.75;17.80;;;;;;;4.21;100.00;100799.38;10588833;28;20047;-59
2021/11/30 05:16:17;;;;;;;21.00;16.90;;;;;;;4.35;100.00;100785.97;10589602;28;20044;-57
2021/11/30 05:21:19;;;;;;;24.90;19.20;;;;;;;4.38;100.00;100815.22;10588646;28;20521;-57
2021/11/30 05:26:22;;;;;;;18.27;15.15;;;;;;;4.53;100.00;100839.00;10588944;28;20051;-55
2021/11/30 05:31:24;;;;;;;18.67;15.32;;;;;;;4.49;100.00;100878.84;10588139;28;20048;-57
2021/11/30 05:36:27;;;;;;;17.40;13.10;;;;;;;4.54;100.00;100876.97;10588939;28;20039;-57
2021/11/30 05:41:29;;;;;;;14.57;12.85;;;;;;;4.70;100.00;100924.88;10587334;28;20499;-56
2021/11/30 05:46:35;;;;;;;13.23;11.13;;;;;;;4.91;100.00;100967.47;10587505;28;20514;-56
2021/11/30 05:51:38;;;;;;;11.63;10.43;;;;;;;5.02;100.00;100982.69;10587348;28;20062;-58
2021/11/30 05:56:41;;;;;;;11.48;10.32;;;;;;;4.99;100.00;100975.00;10586799;28;20050;-59
2021/11/30 06:01:43;;;;;;;11.77;10.55;;;;;;;5.19;100.00;101002.94;10568604;28;20495;-59
2021/11/30 06:06:46;;;;;;;8.98;8.07;;;;;;;5.10;100.00;101030.03;10587038;28;20051;-58
2021/11/30 06:11:49;;;;;;;11.80;8.90;;;;;;;5.45;100.00;101081.78;10586748;28;20122;-60
2021/11/30 06:16:51;;;;;;;8.48;7.35;;;;;;;5.57;100.00;101086.56;10568843;28;20040;-57
2021/11/30 06:21:53;;;;;;;6.60;5.97;;;;;;;5.54;100.00;101110.88;10586266;28;20048;-58
2021/11/30 06:26:56;;;;;;;6.93;6.22;;;;;;;5.59;100.00;101102.94;10586805;28;20122;-57
2021/11/30 06:31:58;;;;;;;6.20;5.60;;;;;;;5.69;100.00;101145.91;10567754;28;20512;-59
2021/11/30 06:37:01;;;;;;;7.30;6.53;;;;;;;5.76;100.00;101141.38;10586313;28;20081;-60
2021/11/30 06:42:05;;;;;;;7.10;6.40;;;;;;;5.89;100.00;101168.66;10585715;28;20054;-59
2021/11/30 06:47:08;;;;;;;7.82;5.82;;;;;;;5.80;100.00;101187.16;10585228;28;20048;-58
2021/11/30 06:52:11;;;;;;;7.97;6.80;;;;;;;6.02;100.00;101196.88;10585084;28;20039;-60
2021/11/30 06:57:14;;;;;;;7.53;6.72;;;;;;;6.01;100.00;101208.22;10585093;28;20050;-59
2021/11/30 07:02:16;;;;;;;9.68;7.43;;;;;;;6.09;100.00;101230.44;10584460;28;20055;-59
2021/11/30 07:07:33;;;;;;;11.38;7.97;;;;;;;6.05;100.00;101248.78;10583780;28;20078;-59
2021/11/30 07:17:39;;;;;;;10.90;8.63;;;;;;;6.10;100.00;101275.50;10584430;28;20046;-58
2021/11/30 07:22:41;;;;;;;10.98;8.73;;;;;;;6.38;100.00;101308.44;10565740;28;20412;-60
2021/11/30 07:27:44;;;;;;;14.38;9.82;;;;;;;6.42;100.00;101333.44;10583825;28;20399;-58
2021/11/30 07:32:46;;;;;;;15.70;11.73;;;;;;;6.47;100.00;101347.16;10583468;28;20502;-59
2021/11/30 07:37:49;;;;;;;13.35;9.93;;;;;;;6.73;100.00;101384.53;10583287;28;20044;-59
2021/11/30 07:42:51;;;;;;;13.18;10.95;;;;;;;6.85;100.00;101404.94;10583006;28;20051;-59
2021/11/30 07:47:54;;;;;;;17.63;13.27;;;;;;;6.95;100.00;101427.19;10582771;28;20407;-57
2021/11/30 07:52:56;;;;;;;14.60;11.65;;;;;;;7.00;100.00;101446.09;10564395;28;20056;-59
2021/11/30 07:57:58;;;;;;;11.60;10.13;;;;;;;7.05;100.00;101420.75;10582779;28;20055;-59
2021/11/30 08:03:01;;;;;;;11.68;10.45;;;;;;;7.16;100.00;101423.03;10565257;28;20051;-58
2021/11/30 08:08:04;;;;;;;13.95;10.95;;;;;;;7.30;100.00;101485.09;10582065;28;20400;-59
2021/11/30 08:13:06;;;;;;;15.93;12.48;;;;;;;7.43;100.00;101481.19;10581801;28;20408;-60
2021/11/30 08:18:09;;;;;;;17.27;12.43;;;;;;;7.37;100.00;101491.78;10582084;28;20051;-59
2021/11/30 08:23:12;;;;;;;16.58;12.10;;;;;;;7.39;100.00;101503.00;10582311;28;20055;-59
2021/11/30 08:28:15;;;;;;;14.18;11.18;;;;;;;7.56;100.00;101525.91;10582153;28;20056;-59
2021/11/30 08:33:20;;;;;;;13.82;10.70;;;;;;;7.55;100.00;101523.38;10581660;28;20394;-57
2021/11/30 08:38:22;;;;;;;12.98;10.60;;;;;;;7.69;100.00;101541.16;10582145;28;20050;-59
2021/11/30 08:43:25;;;;;;;13.07;9.55;;;;;;;7.68;100.00;101552.47;10581269;28;20047;-60
2021/11/30 08:48:28;;;;;;;19.17;11.85;;;;;;;7.65;100.00;101558.66;10581413;28;20483;-59
2021/11/30 08:53:34;;;;;;;16.83;10.35;;;;;;;7.85;100.00;101585.78;10581172;28;20395;-59
2021/11/30 08:58:37;;;;;;;19.63;9.38;;;;;;;7.81;100.00;101603.28;10581201;28;20533;-59
2021/11/30 09:03:40;;;;;;;13.10;9.15;;;;;;;7.74;100.00;101575.72;10581438;28;20058;-58
2021/11/30 09:08:43;;;;;;;14.30;9.48;;;;;;;7.98;100.00;101606.22;10566096;28;20051;-59
2021/11/30 09:13:47;;;;;;;16.08;9.25;;;;;;;8.02;100.00;101611.28;10554390;28;20048;-61
2021/11/30 09:18:49;;;;;;;15.25;7.90;;;;;;;8.02;100.00;101639.97;10557799;28;20039;-59
2021/11/30 09:23:52;;;;;;;19.85;9.98;;;;;;;8.18;100.00;101659.44;10559542;28;20039;-62
2021/11/30 09:28:55;;;;;;;12.52;7.80;;;;;;;8.24;100.00;101677.50;10560682;28;20036;-60
2021/11/30 09:34:01;;;;;;;11.27;7.70;;;;;;;8.24;100.00;101698.38;10564357;28;20044;-59
2021/11/30 09:39:06;;;;;;;13.70;7.82;;;;;;;8.29;100.00;101699.06;10565787;28;20483;-59
2021/11/30 09:44:10;;;;;;;12.65;5.85;;;;;;;8.36;100.00;101736.25;10563829;28;20047;-60
2021/11/30 09:49:13;;;;;;;9.65;7.07;;;;;;;8.45;100.00;101761.22;10562733;28;20037;-61
2021/11/30 09:54:17;;;;;;;7.65;6.50;;;;;;;8.48;100.00;101748.06;10566556;28;20044;-62
2021/11/30 09:59:19;;;;;;;7.80;6.55;;;;;;;8.49;100.00;101774.13;10525877;28;20396;-61
2021/11/30 10:04:22;;;;;;;12.73;6.75;;;;;;;8.48;100.00;101790.69;10546017;28;20052;-60
2021/11/30 10:09:25;;;;;;;14.52;7.03;;;;;;;8.61;100.00;101785.91;10555777;28;20044;-61
2021/11/30 10:14:33;;;;;;;11.43;6.70;;;;;;;8.64;100.00;101811.03;10544556;28;20051;-60
2021/11/30 10:19:36;;;;;;;11.13;6.38;;;;;;;8.54;100.00;101811.38;10541984;28;20154;-60
2021/11/30 10:24:38;;;;;;;7.68;5.57;;;;;;;8.59;100.00;101776.41;10544141;28;20044;-62
2021/11/30 10:29:42;;;;;;;10.93;7.03;;;;;;;8.59;100.00;101730.31;10543787;28;20483;-59
2021/11/30 10:34:45;;;;;;;13.10;6.88;;;;;;;8.60;100.00;101723.31;10544167;28;20040;-61
2021/11/30 10:39:47;;;;;;;19.05;7.70;;;;;;;8.64;100.00;101728.38;10525292;28;20059;-60
2021/11/30 10:44:55;;;;;;;11.63;7.25;;;;;;;8.69;100.00;101726.47;10542889;28;20480;-59
2021/11/30 10:50:08;;;;;;;11.10;7.20;;;;;;;8.72;100.00;101688.94;10543018;28;20055;-59
2021/11/30 10:55:16;;;;;;;19.98;7.97;;;;;;;8.65;100.00;101717.03;10543460;28;20040;-60
2021/11/30 11:00:32;;;;;;;12.20;6.22;;;;;;;8.59;100.00;101729.44;10542608;28;20047;-61
2021/11/30 11:05:41;;;;;;;6.43;3.75;;;;;;;8.55;100.00;101726.91;10542286;28;20408;-60
2021/11/30 11:10:46;;;;;;;4.75;1.75;;;;;;;8.39;100.00;101710.06;10542298;28;20048;-61
2021/11/30 11:15:51;;;;;;;1.70;1.05;;;;;;;8.33;100.00;101710.25;10542495;28;20143;-60
2021/11/30 11:21:16;;;;;;;1.23;1.10;;;;;;;8.35;100.00;101711.94;10541699;28;20071;-61
2021/11/30 11:26:33;;;;;;;2.55;1.10;;;;;;;8.21;100.00;101695.03;10526986;28;20048;-60
2021/11/30 11:31:39;;;;;;;3.17;1.45;;;;;;;8.07;100.00;101680.69;10541644;28;20127;-59
2021/11/30 11:36:47;;;;;;;6.30;1.80;;;;;;;8.03;100.00;101680.81;10542217;28;20040;-60
2021/11/30 11:41:58;;;;;;;2.58;1.70;;;;;;;8.04;100.00;101695.56;10541165;28;20048;-60
2021/11/30 11:47:06;;;;;;;2.88;1.75;;;;;;;7.96;100.00;101680.16;10541129;28;20062;-60
2021/11/30 11:52:27;;;;;;;5.43;3.08;;;;;;;7.95;100.00;101684.53;10522586;28;20373;-60
2021/11/30 11:57:30;;;;;;;6.35;1.85;;;;;;;7.90;100.00;101681.22;10540476;28;20052;-60
2021/11/30 12:02:32;;;;;;;3.15;2.00;;;;;;;7.94;100.00;101668.94;10540105;28;20488;-60
2021/11/30 12:07:57;;;;;;;2.30;1.83;;;;;;;8.00;100.00;101679.16;10540428;28;20048;-59
2021/11/30 12:12:59;;;;;;;6.38;2.40;;;;;;;7.81;100.00;101663.25;10539961;28;20052;-59
2021/11/30 12:18:24;;;;;;;4.18;2.58;;;;;;;7.75;100.00;101645.19;10539995;28;20048;-60
2021/11/30 12:23:36;;;;;;;5.13;2.95;;;;;;;7.92;100.00;101649.88;10539991;28;20044;-60
2021/11/30 12:28:40;;;;;;;5.75;2.75;;;;;;;7.87;100.00;101644.81;10539811;28;20054;-61
2021/11/30 12:33:49;;;;;;;3.63;2.22;;;;;;;8.06;100.00;101642.44;10539436;28;20503;-59
2021/11/30 12:38:52;;;;;;;2.45;1.90;;;;;;;8.07;100.00;101641.56;10539706;28;20047;-60
2021/11/30 12:43:58;;;;;;;2.88;2.33;;;;;;;7.93;100.00;101636.78;10539348;28;20044;-60
2021/11/30 12:49:03;;;;;;;2.45;1.90;;;;;;;8.04;100.00;101623.41;10539340;28;20439;-61
2021/11/30 12:54:22;;;;;;;3.60;2.80;;;;;;;8.15;100.00;101631.72;10539300;28;20484;-60
2021/11/30 12:59:40;;;;;;;5.30;3.10;;;;;;;7.97;100.00;101622.75;10539965;28;20048;-60
2021/11/30 13:04:42;;;;;;;3.97;2.92;;;;;;;8.03;100.00;101632.09;10541798;28;20052;-59
2021/11/30 13:09:50;;;;;;;4.72;3.85;;;;;;;8.01;100.00;101639.13;10547208;28;20047;-61
2021/11/30 13:14:53;;;;;;;3.50;2.55;;;;;;;8.04;100.00;101625.16;10529543;28;20056;-61
2021/11/30 13:19:56;;;;;;;5.50;3.05;;;;;;;7.92;100.00;101618.59;10529065;28;20044;-60
2021/11/30 13:25:01;;;;;;;4.03;3.03;;;;;;;7.91;100.00;101622.94;10547285;28;20044;-60
2021/11/30 13:30:14;;;;;;;2.65;2.45;;;;;;;7.93;100.00;101615.06;10546549;28;20059;-61
2021/11/30 13:35:21;;;;;;;3.60;3.03;;;;;;;8.04;100.00;101627.78;10546351;28;20040;-60
2021/11/30 13:40:48;;;;;;;4.88;2.25;;;;;;;7.88;100.00;101630.00;10546269;28;20093;-60
2021/11/30 13:46:01;;;;;;;4.15;2.88;;;;;;;8.04;100.00;101643.41;10527922;28;20408;-60
2021/11/30 13:51:25;;;;;;;3.67;3.33;;;;;;;7.88;100.00;101633.47;10528049;28;20076;-60
2021/11/30 13:56:33;;;;;;;2.92;2.63;;;;;;;8.00;100.00;101634.81;10546064;28;20046;-60
2021/11/30 14:06:53;;;;;;;5.43;3.22;;;;;;;7.87;100.00;101625.69;10545771;28;20045;-60
2021/11/30 14:12:08;;;;;;;5.65;4.35;;;;;;;7.98;100.00;101634.91;10544749;28;20052;-60
2021/11/30 14:17:21;;;;;;;5.28;4.50;;;;;;;8.08;100.00;101635.41;10544030;28;20480;-60
2021/11/30 14:22:34;;;;;;;4.38;3.83;;;;;;;7.99;100.00;101644.41;10544185;28;20492;-61
2021/11/30 14:27:48;;;;;;;9.20;6.45;;;;;;;7.93;100.00;101638.53;10545218;28;20044;-59
2021/11/30 14:33:06;;;;;;;5.35;4.72;;;;;;;8.03;100.00;101650.38;10543816;28;20475;-59
2021/11/30 14:38:09;;;;;;;5.20;4.70;;;;;;;7.81;100.00;101639.78;10544265;28;20044;-60
2021/11/30 14:43:15;;;;;;;5.25;4.55;;;;;;;7.99;100.00;101657.44;10525350;28;20055;-59
2021/11/30 14:48:21;;;;;;;8.77;6.25;;;;;;;7.99;100.00;101659.22;10543335;28;20476;-59
2021/11/30 14:53:35;;;;;;;7.78;5.15;;;;;;;8.17;100.00;101687.28;10525320;28;20394;-60
2021/11/30 14:58:41;;;;;;;12.68;6.63;;;;;;;8.05;100.00;101676.41;10542954;28;20056;-60
2021/11/30 15:03:45;;;;;;;5.82;4.85;;;;;;;8.08;100.00;101673.69;10525001;28;20048;-59
2021/11/30 15:08:49;;;;;;;6.97;5.78;;;;;;;8.03;100.00;101676.44;10542672;28;20048;-59
2021/11/30 15:13:52;;;;;;;12.77;7.78;;;;;;;7.89;100.00;101670.84;10542201;28;20064;-59
2021/11/30 15:19:16;;;;;;;9.93;7.13;;;;;;;7.98;100.00;101681.84;10542354;28;20052;-60
2021/11/30 15:24:19;;;;;;;14.60;7.80;;;;;;;8.04;100.00;101691.19;10542353;28;20139;-60
2021/11/30 15:29:30;;;;;;;20.80;11.75;;;;;;;7.90;100.00;101691.66;10541064;28;20055;-58
2021/11/30 15:34:32;;;;;;;14.02;11.00;;;;;;;7.88;100.00;101687.38;10541970;28;20044;-59
2021/11/30 15:39:35;;;;;;;18.05;11.38;;;;;;;7.81;100.00;101678.91;10541435;28;20055;-60
2021/11/30 15:44:39;;;;;;;8.85;6.88;;;;;;;8.06;100.00;101688.53;10540964;28;20502;-61
2021/11/30 15:49:41;;;;;;;12.52;7.70;;;;;;;8.06;100.00;101668.53;10522818;28;20406;-59
2021/11/30 15:54:47;;;;;;;17.23;7.88;;;;;;;7.90;100.00;101660.38;10540813;28;20048;-60
2021/11/30 15:59:50;;;;;;;13.02;6.57;;;;;;;7.88;100.00;101664.75;10540432;28;20167;-59
2021/11/30 16:04:55;;;;;;;8.32;5.07;;;;;;;7.86;100.00;101656.13;10540324;28;20055;-59
2021/11/30 16:09:59;;;;;;;8.40;6.10;;;;;;;7.86;100.00;101653.53;10522952;28;20054;-60
2021/11/30 16:15:04;;;;;;;7.90;6.40;;;;;;;7.99;100.00;101670.47;10540299;28;20040;-60
2021/11/30 16:20:07;;;;;;;7.55;5.72;;;;;;;8.00;100.00;101666.09;10539904;28;20059;-59
2021/11/30 16:25:09;;;;;;;8.45;5.90;;;;;;;7.86;100.00;101665.72;10539836;28;20506;-59
2021/11/30 16:30:12;;;;;;;5.93;4.85;;;;;;;7.99;100.00;101664.41;10539452;28;20044;-59
2021/11/30 16:35:15;;;;;;;9.80;6.55;;;;;;;7.82;100.00;101654.53;10539849;28;20044;-60
2021/11/30 16:40:17;;;;;;;14.32;8.40;;;;;;;8.00;100.00;101660.88;10544888;28;20522;-59
2021/11/30 16:45:19;;;;;;;14.07;8.57;;;;;;;7.97;100.00;101664.47;10548509;28;20054;-59
2021/11/30 16:50:40;;;;;;;11.93;8.40;;;;;;;8.16;100.00;101669.91;10547922;28;20074;-60
2021/11/30 16:55:42;;;;;;;9.00;7.32;;;;;;;8.16;100.00;101667.31;10548920;28;20039;-60
2021/11/30 17:00:45;;;;;;;16.08;9.63;;;;;;;8.26;100.00;101665.25;10529539;28;20048;-59
2021/11/30 17:05:49;;;;;;;23.15;11.38;;;;;;;7.97;100.00;101653.19;10529142;28;20058;-59
2021/11/30 17:10:56;;;;;;;30.15;12.63;;;;;;;8.25;100.00;101653.09;10547037;28;20044;-62
2021/11/30 17:15:58;;;;;;;15.32;9.85;;;;;;;8.29;100.00;101656.47;10547020;28;20052;-60
2021/11/30 17:21:01;;;;;;;18.27;9.95;;;;;;;8.19;100.00;101645.50;10547186;28;20083;-59
2021/11/30 17:26:03;;;;;;;20.52;9.80;;;;;;;8.15;100.00;101638.66;10546893;28;20069;-59
2021/11/30 17:31:06;;;;;;;22.05;11.10;;;;;;;8.32;100.00;101643.31;10546542;28;20040;-61
2021/11/30 17:36:09;;;;;;;27.25;13.80;;;;;;;8.10;100.00;101640.59;10546403;28;20044;-59
2021/11/30 17:41:12;;;;;;;27.02;11.30;;;;;;;8.34;100.00;101642.38;10545964;28;20482;-59
2021/11/30 17:46:14;;;;;;;47.25;23.52;;;;;;;8.37;100.00;101630.94;10528434;28;20044;-60
2021/11/30 17:51:16;;;;;;;34.25;13.00;;;;;;;8.31;100.00;101632.03;10545192;28;20080;-60
2021/11/30 17:56:19;;;;;;;31.05;13.77;;;;;;;8.04;100.00;101609.50;10546125;28;20044;-59
2021/11/30 18:01:21;;;;;;;15.98;9.38;;;;;;;8.14;100.00;101611.75;10544955;28;20404;-59
2021/11/30 18:06:24;;;;;;;15.90;10.55;;;;;;;8.31;100.00;101613.75;10544940;28;20450;-58
2021/11/30 18:11:27;;;;;;;14.32;10.43;;;;;;;8.44;100.00;101602.91;10544706;28;20048;-60
2021/11/30 18:16:29;;;;;;;19.83;11.25;;;;;;;8.46;100.00;101603.75;10544802;28;20056;-59
2021/11/30 18:21:32;;;;;;;16.15;11.95;;;;;;;8.59;100.00;101605.00;10544874;28;20056;-60
2021/11/30 18:26:34;;;;;;;17.38;11.93;;;;;;;8.55;100.00;101599.00;10544441;28;20052;-60
2021/11/30 18:31:37;;;;;;;20.92;14.23;;;;;;;8.71;100.00;101606.31;10544215;28;20051;-60
2021/11/30 18:36:39;;;;;;;35.58;17.08;;;;;;;8.58;100.00;101597.22;10544162;28;20044;-59
2021/11/30 18:41:41;;;;;;;23.80;16.13;;;;;;;8.55;100.00;101580.75;10543431;28;20407;-60
2021/11/30 18:46:44;;;;;;;20.30;13.20;;;;;;;8.53;100.00;101576.50;10543887;28;20040;-59
2021/11/30 18:51:46;;;;;;;21.55;14.77;;;;;;;8.55;100.00;101570.31;10543063;28;20048;-58
2021/11/30 18:56:49;;;;;;;22.92;16.42;;;;;;;8.50;100.00;101580.06;10542940;28;20040;-60
2021/11/30 19:01:51;;;;;;;30.25;17.73;;;;;;;8.48;100.00;101573.22;10541445;28;20154;-59
2021/11/30 19:06:54;;;;;;;20.40;15.15;;;;;;;8.62;100.00;101573.53;10542786;28;20119;-60
2021/11/30 19:11:57;;;;;;;32.42;17.70;;;;;;;8.66;100.00;101566.47;10524128;28;20048;-59
2021/11/30 19:17:01;;;;;;;26.95;17.08;;;;;;;8.68;100.00;101559.44;10542248;28;20051;-59
2021/11/30 19:22:04;;;;;;;24.40;17.02;;;;;;;8.63;100.00;101567.44;10541825;28;20515;-59
2021/11/30 19:27:06;;;;;;;21.38;15.18;;;;;;;8.68;100.00;101560.28;10541878;28;20047;-60
2021/11/30 19:32:09;;;;;;;27.70;18.65;;;;;;;8.67;100.00;101555.94;10541425;28;20044;-58
2021/11/30 19:37:17;;;;;;;24.15;17.35;;;;;;;8.65;100.00;101549.09;10541737;28;20044;-60
2021/11/30 19:42:21;;;;;;;31.08;20.55;;;;;;;8.65;100.00;101542.09;10541461;28;20052;-60
2021/11/30 19:47:23;;;;;;;32.53;21.95;;;;;;;8.62;100.00;101531.78;10541345;28;20051;-60
2021/11/30 19:52:26;;;;;;;34.22;22.52;;;;;;;8.60;100.00;101535.38;10522843;28;20044;-60
2021/11/30 19:57:28;;;;;;;29.27;21.17;;;;;;;8.64;100.00;101531.72;10541341;28;20047;-61
2021/11/30 20:07:53;;;;;;;29.20;19.08;;;;;;;8.65;100.00;101523.00;10540724;28;20044;-60
2021/11/30 20:12:56;;;;;;;35.08;22.02;;;;;;;8.58;100.00;101587.63;10539856;28;20048;-60
2021/11/30 20:18:00;;;;;;;41.67;26.27;;;;;;;8.57;100.00;101565.03;10522050;28;20043;-61
2021/11/30 20:23:03;;;;;;;44.83;26.55;;;;;;;8.59;100.00;101518.00;10539790;28;20487;-59
2021/11/30 20:28:06;;;;;;;40.53;25.60;;;;;;;8.68;100.00;101500.22;10540504;28;20044;-60
2021/11/30 20:33:09;;;;;;;28.73;21.10;;;;;;;8.52;100.00;101479.09;10539699;28;20044;-59
2021/11/30 20:43:43;;;;;;;35.20;25.63;;;;;;;8.59;100.00;101457.97;10539684;28;20134;-60
2021/11/30 20:48:45;;;;;;;45.38;31.10;;;;;;;8.66;100.00;101462.91;10539658;28;20040;-60
2021/11/30 20:53:48;;;;;;;36.70;26.00;;;;;;;8.60;100.00;101446.63;10539228;28;20044;-60
2021/11/30 20:58:50;;;;;;;38.63;26.30;;;;;;;8.58;100.00;101438.84;10539486;28;20051;-60
2021/11/30 21:03:53;;;;;;;53.30;34.13;;;;;;;8.68;100.00;101437.56;10539424;28;20480;-60
2021/11/30 21:08:55;;;;;;;53.13;35.40;;;;;;;8.67;100.00;101421.97;10539187;28;20048;-59
2021/11/30 21:13:58;;;;;;;49.80;31.70;;;;;;;8.74;100.00;101400.78;10538750;28;20040;-61
2021/11/30 21:19:04;;;;;;;51.17;34.33;;;;;;;8.72;100.00;101392.19;10539052;28;20040;-59
2021/11/30 21:24:08;;;;;;;55.80;34.28;;;;;;;8.61;100.00;101381.31;10538780;28;20048;-58
2021/11/30 21:29:10;;;;;;;63.13;37.63;;;;;;;8.63;100.00;101387.31;10547113;28;20127;-61
2021/11/30 21:34:13;;;;;;;58.40;34.55;;;;;;;8.54;100.00;101375.47;10546239;28;20056;-60
2021/11/30 21:39:16;;;;;;;70.60;38.97;;;;;;;8.59;100.00;101370.09;10528976;28;20052;-58
2021/11/30 21:44:18;;;;;;;75.30;41.78;;;;;;;8.64;100.00;101346.38;10545803;28;20048;-60
2021/11/30 21:49:22;;;;;;;62.85;38.30;;;;;;;8.61;100.00;101334.31;10527945;28;20062;-60
2021/11/30 21:54:24;;;;;;;65.13;38.53;;;;;;;8.50;100.00;101311.25;10545396;28;20051;-59
2021/11/30 21:59:27;;;;;;;52.05;33.35;;;;;;;8.44;100.00;101308.91;10545363;28;20051;-59
2021/11/30 22:04:30;;;;;;;62.70;39.35;;;;;;;8.56;100.00;101310.19;10527339;28;20052;-60
2021/11/30 22:09:32;;;;;;;77.10;44.75;;;;;;;8.55;100.00;101293.63;10545021;28;20044;-59
2021/11/30 22:14:35;;;;;;;70.50;41.55;;;;;;;8.65;100.00;101282.84;10544842;28;20070;-60
2021/11/30 22:19:37;;;;;;;68.05;40.17;;;;;;;8.61;100.00;101276.91;10544818;28;20052;-59
2021/11/30 22:24:39;;;;;;;69.88;40.85;;;;;;;8.60;100.00;101262.13;10544622;28;20048;-59
2021/11/30 22:29:42;;;;;;;55.70;36.78;;;;;;;8.53;100.00;101255.50;10544357;28;20044;-58
2021/11/30 22:34:44;;;;;;;55.22;36.25;;;;;;;8.64;100.00;101240.22;10543774;28;20047;-60
2021/11/30 22:39:47;;;;;;;55.38;32.65;;;;;;;8.67;100.00;101216.59;10543500;28;20052;-61
2021/11/30 22:44:49;;;;;;;59.60;35.15;;;;;;;8.68;100.00;101217.44;10543525;28;20396;-60
2021/11/30 22:49:51;;;;;;;50.80;34.25;;;;;;;8.59;100.00;101192.59;10543200;28;20048;-61
2021/11/30 22:55:02;;;;;;;52.80;33.97;;;;;;;8.70;100.00;101181.69;10543208;28;20055;-60
2021/11/30 23:00:13;;;;;;;47.42;30.27;;;;;;;8.70;100.00;101166.03;10526873;28;20048;-59
2021/11/30 23:05:15;;;;;;;54.35;33.17;;;;;;;8.70;100.00;101160.81;10542925;28;20094;-61
2021/11/30 23:10:17;;;;;;;47.28;30.63;;;;;;;8.71;100.00;101163.34;10542312;28;20048;-60
2021/11/30 23:15:23;;;;;;;38.25;28.80;;;;;;;8.71;100.00;101152.91;10542899;28;20048;-60
2021/11/30 23:20:29;;;;;;;61.53;33.70;;;;;;;8.69;100.00;101143.44;10542152;28;20044;-60
2021/11/30 23:25:40;;;;;;;32.88;25.73;;;;;;;8.78;100.00;101126.53;10543411;28;20130;-60
2021/11/30 23:30:44;;;;;;;36.50;25.48;;;;;;;8.78;100.00;101116.09;10541970;28;20055;-59